Time;durP1;ratioP1;P1;durP2;ratioP2;P2;SDS_P1;SDS_P2;PMS_P1;PMS_P2;Temp;Humidity;BMP_temperature;BMP_pressure;BME280_temperature;BME280_humidity;BME280_pressure;Samples;Min_cycle;Max_cycle;Signal;HPM_P1;HPM_P2
2022/08/24 04:34:38;;;;;;;11.05;4.38;;;;;;;24.77;100.00;99661.47;5109197;27;20396;-72
2022/08/24 04:37:03;;;;;;;11.82;4.45;;;;;;;24.84;100.00;99665.13;5108624;28;20046;-72
2022/08/24 04:39:29;;;;;;;6.60;3.97;;;;;;;24.45;100.00;99667.91;5108159;28;20030;-73
2022/08/24 04:41:56;;;;;;;6.03;3.80;;;;;;;24.47;100.00;99661.59;5097620;28;20107;-80
2022/08/24 04:44:21;;;;;;;4.82;3.63;;;;;;;24.43;100.00;99667.22;5090221;28;20066;-81
2022/08/24 04:46:47;;;;;;;6.53;3.70;;;;;;;24.28;100.00;99668.59;5109345;28;20049;-80
2022/08/24 04:49:12;;;;;;;8.60;3.38;;;;;;;24.58;100.00;99669.25;5108765;28;20028;-79
2022/08/24 04:51:38;;;;;;;7.65;3.65;;;;;;;24.69;100.00;99678.69;5109862;28;20114;-83
2022/08/24 04:54:04;;;;;;;5.40;3.63;;;;;;;24.37;100.00;99636.56;5108131;28;20031;-81
2022/08/24 04:56:29;;;;;;;5.95;3.78;;;;;;;24.71;100.00;99658.56;5109703;28;20024;-83
2022/08/24 04:58:55;;;;;;;7.30;3.92;;;;;;;24.89;100.00;99693.31;5108802;28;20028;-90
2022/08/24 05:01:24;;;;;;;8.10;3.60;;;;;;;25.20;100.00;99686.91;5111995;28;20028;-91
2022/08/24 05:03:53;;;;;;;11.90;4.45;;;;;;;25.12;100.00;99670.38;5111304;28;20051;-91
2022/08/24 05:06:20;;;;;;;6.82;3.70;;;;;;;25.21;100.00;99670.34;5110504;28;20119;-87
2022/08/24 05:08:46;;;;;;;7.65;3.42;;;;;;;25.33;100.00;99677.03;5109231;28;20020;-90
2022/08/24 05:11:13;;;;;;;8.55;3.78;;;;;;;25.57;100.00;99676.53;5111182;28;20034;-84
2022/08/24 05:13:39;;;;;;;9.73;4.05;;;;;;;25.49;100.00;99668.63;5113180;28;20028;-89
2022/08/24 05:16:07;;;;;;;8.90;4.43;;;;;;;25.64;100.00;99670.56;5109108;28;20030;-82
2022/08/24 05:18:33;;;;;;;8.55;4.18;;;;;;;25.65;100.00;99669.59;5109078;28;20032;-79
2022/08/24 05:20:58;;;;;;;11.30;4.55;;;;;;;25.35;100.00;99650.84;5108929;28;20069;-80
2022/08/24 05:23:24;;;;;;;13.02;4.60;;;;;;;25.08;100.00;99603.97;5109161;28;20122;-81
2022/08/24 05:25:50;;;;;;;12.23;4.60;;;;;;;25.61;100.00;99672.66;5109202;28;20125;-81
2022/08/24 05:28:16;;;;;;;9.75;4.57;;;;;;;25.87;100.00;99676.19;5108243;28;20020;-85
2022/08/24 05:30:41;;;;;;;10.90;4.75;;;;;;;25.67;100.00;99656.44;5108729;28;20096;-84
2022/08/24 05:33:07;;;;;;;11.82;4.93;;;;;;;25.69;100.00;99637.09;5109601;28;20064;-84
2022/08/24 05:35:41;;;;;;;17.73;5.28;;;;;;;25.66;100.00;99631.34;5108475;28;20119;-81
2022/08/24 05:38:06;;;;;;;16.77;4.85;;;;;;;26.11;100.00;99647.78;5109155;28;20031;-87
2022/08/24 05:40:32;;;;;;;9.85;4.57;;;;;;;26.18;100.00;99668.88;5109348;28;20387;-81
2022/08/24 05:42:57;;;;;;;12.13;5.00;;;;;;;26.37;100.00;99676.50;5108816;28;20058;-85
2022/08/24 05:45:22;;;;;;;14.95;4.72;;;;;;;26.10;100.00;99689.66;5098867;28;20071;-81
2022/08/24 05:47:48;;;;;;;16.23;4.82;;;;;;;26.23;100.00;99651.81;5093990;28;20047;-86
2022/08/24 05:50:14;;;;;;;13.35;4.78;;;;;;;26.57;100.00;99650.13;5095993;28;20043;-82
2022/08/24 05:52:39;;;;;;;12.52;5.20;;;;;;;26.91;100.00;99691.97;5094022;28;20047;-82
2022/08/24 05:55:05;;;;;;;15.32;4.65;;;;;;;27.21;100.00;99691.50;5095125;28;20107;-81
2022/08/24 05:57:34;;;;;;;12.80;4.90;;;;;;;27.28;100.00;99652.47;5094422;28;20089;-81
2022/08/24 06:00:00;;;;;;;12.82;5.00;;;;;;;26.82;100.00;99666.75;5095047;28;20043;-83
2022/08/24 06:02:25;;;;;;;13.55;4.90;;;;;;;26.48;100.00;99697.97;5094899;28;20039;-79
2022/08/24 06:04:51;;;;;;;10.93;4.78;;;;;;;26.76;100.00;99690.88;5094737;28;20024;-86
2022/08/24 06:07:17;;;;;;;12.77;5.15;;;;;;;26.82;100.00;99700.69;5095411;28;20024;-81
2022/08/24 06:09:42;;;;;;;13.50;6.10;;;;;;;27.13;100.00;99704.50;5093423;28;20059;-81
2022/08/24 06:12:08;;;;;;;12.63;5.47;;;;;;;27.24;100.00;99699.00;5094804;28;20509;-85
2022/08/24 06:14:35;;;;;;;13.88;5.40;;;;;;;27.74;100.00;99703.47;5094930;28;20117;-83
2022/08/24 06:17:03;;;;;;;16.27;5.55;;;;;;;27.27;100.00;99714.38;5094677;28;20603;-80
2022/08/24 06:19:29;;;;;;;22.75;5.72;;;;;;;27.67;100.00;99708.53;5094937;28;20040;-79
2022/08/24 06:21:55;;;;;;;14.95;4.95;;;;;;;27.62;100.00;99694.28;5093940;28;20070;-80
2022/08/24 06:27:21;;;;;;;14.40;5.25;;;;;;;28.24;100.00;99680.72;5094692;28;20035;-79
2022/08/24 06:29:53;;;;;;;14.65;4.53;;;;;;;28.23;100.00;99708.69;5095115;28;20510;-80
2022/08/24 06:32:19;;;;;;;13.82;5.05;;;;;;;28.10;100.00;99726.66;5094719;28;20028;-78
2022/08/24 06:34:45;;;;;;;14.10;4.82;;;;;;;28.88;100.00;99719.97;5093781;28;20026;-79
2022/08/24 06:37:10;;;;;;;15.13;4.88;;;;;;;28.71;100.00;99720.97;5092946;28;20370;-84
2022/08/24 06:39:36;;;;;;;19.80;5.65;;;;;;;28.75;100.00;99685.66;5094212;28;20229;-81
2022/08/24 06:42:01;;;;;;;22.92;5.80;;;;;;;29.07;100.00;99701.31;5092779;28;20111;-83
2022/08/24 06:44:27;;;;;;;19.90;5.47;;;;;;;28.54;100.00;99713.28;5094303;28;20024;-81
2022/08/24 06:46:52;;;;;;;20.38;5.25;;;;;;;29.11;100.00;99713.06;5092651;28;20038;-83
2022/08/24 06:49:18;;;;;;;22.52;6.35;;;;;;;29.14;100.00;99711.94;5093866;28;20059;-81
2022/08/24 06:51:44;;;;;;;21.35;5.72;;;;;;;29.17;100.00;99680.19;5093274;28;20103;-84
2022/08/24 06:54:10;;;;;;;19.98;5.95;;;;;;;29.66;100.00;99709.63;5092876;28;20067;-84
2022/08/24 06:56:36;;;;;;;22.98;5.85;;;;;;;29.78;100.00;99710.91;5092710;28;20031;-88
2022/08/24 06:59:03;;;;;;;23.73;5.60;;;;;;;30.31;100.00;99708.28;5094015;28;20090;-86
2022/08/24 07:01:29;;;;;;;25.45;6.05;;;;;;;29.38;100.00;99642.91;5093657;28;20028;-84
2022/08/24 07:03:55;;;;;;;22.88;5.68;;;;;;;29.63;100.00;99713.38;5093892;28;20035;-82
2022/08/24 07:06:23;;;;;;;25.92;5.75;;;;;;;29.45;100.00;99668.28;5093048;28;20036;-79
2022/08/24 07:08:48;;;;;;;22.05;5.78;;;;;;;28.85;100.00;99672.38;5092677;28;20063;-81
2022/08/24 07:11:16;;;;;;;23.77;5.65;;;;;;;29.69;100.00;99707.47;5092409;28;20020;-84
2022/08/24 07:13:46;;;;;;;24.48;5.80;;;;;;;30.19;100.00;99714.91;5093525;28;20032;-83
2022/08/24 07:16:12;;;;;;;26.38;6.22;;;;;;;29.77;100.00;99719.78;5093464;28;20043;-84
2022/08/24 07:18:38;;;;;;;22.08;5.82;;;;;;;29.30;100.00;99705.81;5092616;28;20058;-84
2022/08/24 07:21:04;;;;;;;18.15;5.70;;;;;;;29.39;100.00;99726.63;5094140;28;20489;-80
2022/08/24 07:23:30;;;;;;;22.45;5.63;;;;;;;28.81;100.00;99715.56;5093592;28;20043;-81
2022/08/24 07:25:56;;;;;;;26.27;6.13;;;;;;;29.70;100.00;99689.94;5093287;28;20029;-82
2022/08/24 07:28:21;;;;;;;17.70;5.53;;;;;;;29.68;100.00;99718.13;5093429;28;20039;-82
2022/08/24 07:30:46;;;;;;;21.95;5.85;;;;;;;29.27;100.00;99698.31;5092448;28;20031;-79
2022/08/24 07:33:12;;;;;;;21.23;5.25;;;;;;;28.64;100.00;99706.94;5092203;28;20056;-81
2022/08/24 07:35:39;;;;;;;23.85;5.95;;;;;;;28.81;100.00;99732.09;5093099;28;20166;-82
2022/08/24 07:38:06;;;;;;;22.55;5.82;;;;;;;29.29;100.00;99693.72;5093292;28;20027;-82
2022/08/24 07:40:32;;;;;;;23.77;5.55;;;;;;;28.97;100.00;99729.47;5092496;28;20123;-82
2022/08/24 07:42:58;;;;;;;16.00;5.13;;;;;;;28.82;100.00;99731.09;5093079;28;20508;-81
2022/08/24 07:45:25;;;;;;;23.88;5.50;;;;;;;28.53;100.00;99732.56;5093177;28;20028;-82
2022/08/24 07:47:50;;;;;;;27.70;5.32;;;;;;;28.56;100.00;99735.72;5092718;28;20024;-83
2022/08/24 07:50:17;;;;;;;25.80;5.50;;;;;;;29.43;100.00;99743.63;5092672;28;20032;-82
2022/08/24 07:52:43;;;;;;;19.30;5.13;;;;;;;29.88;100.00;99743.78;5092601;28;20024;-82
2022/08/24 07:55:10;;;;;;;20.05;5.03;;;;;;;29.88;100.00;99683.47;5091718;28;20065;-82
2022/08/24 07:57:38;;;;;;;22.73;4.95;;;;;;;31.05;100.00;99736.41;5091274;28;20028;-82
2022/08/24 08:00:08;;;;;;;19.00;4.82;;;;;;;30.55;100.00;99739.59;5091299;28;20028;-81
2022/08/24 08:02:34;;;;;;;21.75;5.57;;;;;;;30.76;100.00;99739.75;5092459;28;20020;-82
2022/08/24 08:04:59;;;;;;;24.00;5.43;;;;;;;31.68;100.00;99735.03;5091631;28;20028;-82
2022/08/24 08:07:25;;;;;;;19.05;4.95;;;;;;;31.08;100.00;99733.41;5092576;28;20043;-81
2022/08/24 08:09:51;;;;;;;25.23;5.07;;;;;;;30.86;100.00;99694.91;5092047;28;20028;-87
2022/08/24 08:12:18;;;;;;;16.08;4.60;;;;;;;30.77;100.00;99727.44;5092301;28;20405;-84
2022/08/24 08:14:44;;;;;;;24.08;5.10;;;;;;;31.48;100.00;99703.22;5090892;28;20122;-82
2022/08/24 08:17:10;;;;;;;30.65;5.72;;;;;;;30.59;100.00;99704.13;5092410;28;20156;-83
2022/08/24 08:19:36;;;;;;;18.95;4.75;;;;;;;31.32;100.00;99732.31;5091986;28;20051;-81
2022/08/24 08:24:46;;;;;;;23.42;4.88;;;;;;;29.21;100.00;99680.66;5092030;28;20050;-80
2022/08/24 08:27:15;;;;;;;22.90;4.95;;;;;;;29.34;100.00;99691.41;5092132;28;20494;-80
2022/08/24 08:29:41;;;;;;;18.10;4.65;;;;;;;30.07;100.00;99721.53;5091711;28;20036;-81
2022/08/24 08:32:09;;;;;;;22.95;4.93;;;;;;;29.41;100.00;99667.00;5092347;28;20043;-80
2022/08/24 08:34:34;;;;;;;21.77;4.55;;;;;;;30.24;100.00;99683.72;5092187;28;20044;-81
2022/08/24 08:37:01;;;;;;;22.48;4.70;;;;;;;30.62;100.00;99700.34;5091226;28;20536;-81
2022/08/24 08:39:27;;;;;;;27.50;5.55;;;;;;;30.18;100.00;99684.41;5092010;28;20036;-80
2022/08/24 08:42:13;;;;;;;21.88;5.07;;;;;;;30.26;100.00;99673.88;5091127;28;20039;-83
2022/08/24 08:45:00;;;;;;;21.05;5.35;;;;;;;30.20;100.00;99742.78;5090853;28;20024;-83
2022/08/24 08:47:56;;;;;;;27.17;5.35;;;;;;;30.76;100.00;99745.00;5091400;28;20032;-88
2022/08/24 08:50:43;;;;;;;29.13;5.65;;;;;;;30.39;100.00;99737.09;5093208;28;20039;-85
2022/08/24 08:53:46;;;;;;;25.55;5.22;;;;;;;29.89;100.00;99734.13;5091371;28;20032;-88
2022/08/24 08:56:27;;;;;;;28.15;5.25;;;;;;;30.50;100.00;99746.38;5092002;28;20027;-87
2022/08/24 08:59:06;;;;;;;25.27;5.25;;;;;;;30.04;100.00;99753.38;5090507;28;20032;-83
2022/08/24 09:02:06;;;;;;;31.42;5.32;;;;;;;30.45;100.00;99764.44;5091962;28;20146;-80
2022/08/24 09:04:57;;;;;;;27.02;5.28;;;;;;;30.61;100.00;99752.03;5092217;28;20036;-79
2022/08/24 09:07:31;;;;;;;31.08;5.03;;;;;;;29.61;100.00;99735.53;5091322;28;20042;-85
2022/08/24 09:10:30;;;;;;;31.88;5.45;;;;;;;29.73;100.00;99728.97;5091968;28;20036;-83
2022/08/24 09:13:13;;;;;;;26.02;4.82;;;;;;;30.09;100.00;99732.69;5091563;28;20052;-82
2022/08/24 09:16:10;;;;;;;22.70;4.80;;;;;;;29.75;100.00;99722.53;5090828;28;20123;-87
2022/08/24 09:19:09;;;;;;;22.85;4.95;;;;;;;30.01;100.00;99716.97;5087713;28;20028;-74
2022/08/24 09:21:38;;;;;;;19.00;4.80;;;;;;;29.97;100.00;99741.94;5076956;28;20042;-73
2022/08/24 09:24:25;;;;;;;22.98;5.13;;;;;;;29.36;100.00;99726.94;5091422;28;20028;-74
2022/08/24 09:27:17;;;;;;;19.73;4.45;;;;;;;29.51;100.00;99721.81;5073501;28;20032;-74
2022/08/24 09:29:45;;;;;;;18.83;4.45;;;;;;;29.54;100.00;99716.22;5072447;28;20032;-73
2022/08/24 09:32:48;;;;;;;19.02;4.60;;;;;;;29.11;100.00;99718.31;5073795;28;20035;-73
2022/08/24 09:35:20;;;;;;;21.23;4.65;;;;;;;29.67;100.00;99709.44;5084914;28;20036;-73
2022/08/24 09:37:58;;;;;;;21.13;4.82;;;;;;;29.40;100.00;99715.13;5092353;28;20028;-71
2022/08/24 09:40:42;;;;;;;19.05;4.30;;;;;;;29.04;100.00;99712.09;5093328;28;20028;-75
2022/08/24 09:43:21;;;;;;;19.55;4.50;;;;;;;29.50;100.00;99696.56;5094889;28;20115;-76
2022/08/24 09:46:15;;;;;;;20.70;4.80;;;;;;;29.38;100.00;99653.38;5092915;28;20062;-75
2022/08/24 09:48:53;;;;;;;16.48;4.35;;;;;;;29.66;100.00;99699.94;5094590;28;20028;-75
2022/08/24 09:51:27;;;;;;;24.25;4.72;;;;;;;30.01;100.00;99698.63;5094492;28;20031;-75
2022/08/24 09:54:22;;;;;;;19.85;5.03;;;;;;;29.93;100.00;99701.31;5094923;28;20111;-76
2022/08/24 09:57:00;;;;;;;22.25;4.97;;;;;;;30.77;100.00;99683.63;5094719;28;20028;-74
2022/08/24 09:59:53;;;;;;;20.27;4.82;;;;;;;30.59;100.00;99687.56;5094300;28;20028;-73
2022/08/24 10:02:53;;;;;;;18.40;4.50;;;;;;;30.33;100.00;99668.75;5093995;28;20032;-74
2022/08/24 10:05:46;;;;;;;20.63;5.07;;;;;;;30.04;100.00;99674.69;5080523;28;20442;-74
2022/08/24 10:08:32;;;;;;;23.75;5.93;;;;;;;30.36;100.00;99673.66;5092214;28;20024;-74
2022/08/24 10:11:18;;;;;;;24.48;4.90;;;;;;;31.49;100.00;99673.34;5093636;28;20027;-74
2022/08/24 10:13:50;;;;;;;23.25;5.32;;;;;;;30.94;100.00;99678.22;5093710;28;20032;-75
2022/08/24 10:16:18;;;;;;;22.00;5.32;;;;;;;29.97;100.00;99681.59;5093926;28;20028;-75
2022/08/24 10:19:04;;;;;;;22.05;5.50;;;;;;;30.58;100.00;99657.84;5093736;28;20086;-75
2022/08/24 10:22:08;;;;;;;18.17;5.47;;;;;;;30.46;100.00;99648.81;5094076;28;20024;-74
2022/08/24 10:24:54;;;;;;;22.88;5.43;;;;;;;30.13;100.00;99673.63;5031561;28;20076;-74
2022/08/24 10:27:43;;;;;;;26.48;6.07;;;;;;;30.21;100.00;99665.69;5031359;28;20038;-74
2022/08/24 10:30:53;;;;;;;25.25;5.85;;;;;;;30.45;100.00;99657.66;5078957;28;20089;-74
2022/08/24 10:33:25;;;;;;;19.15;5.45;;;;;;;29.99;100.00;99603.56;5092006;28;20048;-73
2022/08/24 10:36:11;;;;;;;26.08;5.78;;;;;;;30.25;100.00;99650.44;5092427;28;20058;-74
2022/08/24 10:45:40;;;;;;;25.65;6.00;;;;;;;29.45;100.00;99662.22;5031732;28;20619;-74
2022/08/24 10:48:06;;;;;;;33.55;6.07;;;;;;;29.56;100.00;99678.38;5093161;28;20035;-74
2022/08/24 10:50:52;;;;;;;24.02;6.07;;;;;;;29.44;100.00;99671.88;5093272;28;20032;-72
2022/08/24 10:53:31;;;;;;;26.50;5.57;;;;;;;29.38;100.00;99671.72;5093267;28;20035;-74
2022/08/24 10:56:06;;;;;;;28.98;6.40;;;;;;;29.08;100.00;99634.81;5092457;28;20039;-74
2022/08/24 10:58:43;;;;;;;26.85;6.05;;;;;;;29.62;100.00;99679.50;5092083;28;20036;-74
2022/08/24 11:01:33;;;;;;;28.05;6.18;;;;;;;29.46;100.00;99669.91;5092088;28;20035;-73
2022/08/24 11:04:05;;;;;;;27.30;6.45;;;;;;;29.32;100.00;99656.69;5091604;28;20086;-73
2022/08/24 11:06:35;;;;;;;26.67;6.28;;;;;;;29.42;100.00;99649.44;5093133;28;20110;-72
2022/08/24 11:09:11;;;;;;;29.98;5.70;;;;;;;28.77;100.00;99610.38;5093160;28;20066;-73
2022/08/24 11:11:40;;;;;;;25.30;5.97;;;;;;;28.72;100.00;99609.25;5093256;28;20486;-73
2022/08/24 11:14:15;;;;;;;25.85;5.53;;;;;;;29.18;100.00;99681.00;5093055;28;20035;-74
2022/08/24 11:16:44;;;;;;;27.42;6.22;;;;;;;28.39;100.00;99626.75;5092556;28;20115;-73
2022/08/24 11:19:30;;;;;;;27.05;6.45;;;;;;;29.29;100.00;99707.66;5093153;28;20028;-74
2022/08/24 11:21:57;;;;;;;30.17;6.10;;;;;;;29.42;100.00;99660.75;5092964;28;20028;-74
2022/08/24 11:24:28;;;;;;;31.88;6.18;;;;;;;29.70;100.00;99706.50;5091780;28;20047;-74
2022/08/24 11:27:16;;;;;;;27.25;5.95;;;;;;;29.68;100.00;99692.72;5092836;28;20024;-74
2022/08/24 11:29:51;;;;;;;32.00;5.90;;;;;;;29.60;100.00;99721.59;5093035;28;20030;-73
2022/08/24 11:32:30;;;;;;;29.83;6.53;;;;;;;29.93;100.00;99675.91;5092459;28;20032;-74
2022/08/24 11:35:00;;;;;;;36.00;6.90;;;;;;;29.82;100.00;99694.66;5092524;28;20034;-75
2022/08/24 11:37:33;;;;;;;37.17;6.50;;;;;;;30.33;100.00;99653.00;5091616;28;20028;-74
2022/08/24 11:39:59;;;;;;;25.25;6.03;;;;;;;30.88;100.00;99664.00;5091294;28;20096;-74
2022/08/24 11:42:57;;;;;;;27.42;5.70;;;;;;;30.80;100.00;99685.06;5091592;28;20032;-73
2022/08/24 11:45:31;;;;;;;28.00;6.10;;;;;;;30.73;100.00;99698.09;5092287;28;20054;-74
2022/08/24 11:48:14;;;;;;;24.70;5.63;;;;;;;31.11;100.00;99695.44;5091971;28;20032;-73
2022/08/24 11:50:59;;;;;;;31.45;6.32;;;;;;;31.54;100.00;99703.31;5092461;28;20028;-73
2022/08/24 11:53:35;;;;;;;25.77;5.60;;;;;;;31.44;100.00;99723.00;5092024;28;20044;-74
2022/08/24 11:56:20;;;;;;;32.38;5.82;;;;;;;30.83;100.00;99718.03;5090718;28;20032;-72
2022/08/24 11:59:08;;;;;;;29.98;6.10;;;;;;;30.84;100.00;99691.63;5091776;28;20517;-73
2022/08/24 12:01:59;;;;;;;35.58;5.75;;;;;;;31.11;100.00;99727.78;5091880;28;20027;-74
2022/08/24 12:04:49;;;;;;;28.90;5.85;;;;;;;31.27;100.00;99721.53;5090407;28;20031;-72
2022/08/24 12:07:32;;;;;;;34.80;5.63;;;;;;;30.86;100.00;99713.28;5091843;28;20024;-72
2022/08/24 12:10:13;;;;;;;37.60;6.22;;;;;;;30.90;100.00;99708.47;5091368;28;20052;-73
2022/08/24 12:12:45;;;;;;;28.65;6.20;;;;;;;31.41;100.00;99697.09;5091501;28;20055;-72
2022/08/24 12:15:19;;;;;;;31.70;5.72;;;;;;;31.67;100.00;99659.78;5091361;28;20060;-73
2022/08/24 12:18:03;;;;;;;31.08;5.40;;;;;;;31.09;100.00;99658.00;5090292;28;20028;-72
2022/08/24 12:20:42;;;;;;;31.70;5.47;;;;;;;31.28;100.00;99700.31;5091558;28;20118;-72
2022/08/24 12:23:15;;;;;;;33.33;6.07;;;;;;;31.33;100.00;99666.44;5090069;28;20498;-73
2022/08/24 12:26:03;;;;;;;31.02;6.00;;;;;;;31.01;100.00;99685.19;5091904;28;20020;-74
2022/08/24 12:28:36;;;;;;;36.50;6.30;;;;;;;31.25;100.00;99673.59;5091603;28;20553;-73
2022/08/24 12:31:18;;;;;;;29.08;6.50;;;;;;;30.57;100.00;99653.59;5090136;28;20111;-73
2022/08/24 12:33:50;;;;;;;30.85;6.07;;;;;;;30.40;100.00;99604.06;5091371;28;20490;-73
2022/08/24 12:36:44;;;;;;;28.60;6.20;;;;;;;31.09;100.00;99685.13;5091507;28;20420;-72
2022/08/24 12:39:16;;;;;;;32.38;6.00;;;;;;;30.58;100.00;99684.09;5068612;28;20044;-73
2022/08/24 12:42:16;;;;;;;27.95;5.95;;;;;;;30.74;100.00;99681.31;5091170;28;20475;-74
2022/08/24 12:44:52;;;;;;;37.93;6.57;;;;;;;30.74;100.00;99672.66;5083037;28;20104;-75
2022/08/24 12:47:49;;;;;;;29.73;6.15;;;;;;;30.89;100.00;99670.88;5090596;28;20118;-75
2022/08/24 12:50:47;;;;;;;32.05;5.82;;;;;;;31.03;100.00;99687.63;5091804;28;20036;-74
2022/08/24 12:54:00;;;;;;;34.45;5.85;;;;;;;31.52;100.00;99672.94;5056623;28;20066;-75
2022/08/24 12:56:44;;;;;;;36.75;6.40;;;;;;;31.59;100.00;99665.97;5088604;28;20494;-73
2022/08/24 12:59:24;;;;;;;28.70;6.38;;;;;;;30.85;100.00;99669.59;5095305;28;20110;-73
2022/08/24 13:01:56;;;;;;;35.28;6.47;;;;;;;31.21;100.00;99656.56;5095137;28;20039;-73
2022/08/24 13:04:52;;;;;;;31.85;5.78;;;;;;;31.49;100.00;99641.78;5095506;28;20035;-74
2022/08/24 13:07:17;;;;;;;32.75;6.35;;;;;;;31.47;100.00;99633.25;5095402;28;20501;-74
2022/08/24 13:09:46;;;;;;;34.45;6.18;;;;;;;31.09;100.00;99629.94;5095137;28;20032;-78
2022/08/24 13:12:42;;;;;;;34.40;5.55;;;;;;;30.85;100.00;99613.63;5095421;28;20032;-74
2022/08/24 13:15:20;;;;;;;31.33;6.15;;;;;;;30.95;100.00;99627.31;5095423;28;20042;-77
2022/08/24 13:17:47;;;;;;;31.30;5.43;;;;;;;30.61;100.00;99617.31;5095638;28;20054;-75
2022/08/24 13:20:34;;;;;;;31.05;5.68;;;;;;;30.71;100.00;99623.94;5095373;28;20165;-75
2022/08/24 13:23:14;;;;;;;30.63;5.75;;;;;;;31.28;100.00;99613.59;5093888;28;20032;-73
2022/08/24 13:25:46;;;;;;;32.53;5.78;;;;;;;30.96;100.00;99571.16;5094466;28;20456;-73
2022/08/24 13:28:41;;;;;;;28.25;5.40;;;;;;;30.77;100.00;99602.19;5095568;28;20275;-73
2022/08/24 13:31:13;;;;;;;33.53;6.40;;;;;;;30.84;100.00;99604.94;5085121;28;20047;-74
2022/08/24 13:33:47;;;;;;;28.98;6.00;;;;;;;30.75;100.00;99606.00;5095035;28;20071;-73
2022/08/24 13:36:48;;;;;;;26.27;5.97;;;;;;;30.51;100.00;99601.81;5093565;28;20032;-74
2022/08/24 13:39:37;;;;;;;28.70;5.93;;;;;;;31.16;100.00;99595.88;5062539;28;20044;-77
2022/08/24 13:42:10;;;;;;;25.48;5.97;;;;;;;31.15;100.00;99591.59;5094643;28;20031;-73
2022/08/24 13:44:50;;;;;;;33.88;6.20;;;;;;;31.26;100.00;99597.19;5094622;28;20036;-74
2022/08/24 13:47:51;;;;;;;30.15;5.82;;;;;;;30.84;100.00;99596.25;5093330;28;20028;-74
2022/08/24 13:50:29;;;;;;;31.47;6.67;;;;;;;30.66;100.00;99594.75;5093940;28;20032;-75
2022/08/24 13:53:03;;;;;;;25.92;5.25;;;;;;;31.19;100.00;99585.78;5094873;28;20117;-72
2022/08/24 13:55:49;;;;;;;22.17;5.65;;;;;;;31.30;100.00;99587.13;5094960;28;20050;-74
2022/08/24 13:58:20;;;;;;;23.80;5.63;;;;;;;30.93;100.00;99545.25;5095544;28;20036;-78
2022/08/24 14:01:23;;;;;;;23.67;6.28;;;;;;;31.48;100.00;99577.03;5094305;28;20495;-74
2022/08/24 14:04:06;;;;;;;26.25;5.80;;;;;;;31.09;100.00;99574.75;5094447;28;20028;-74
2022/08/24 14:06:50;;;;;;;21.48;5.65;;;;;;;31.40;100.00;99574.50;5093730;28;20027;-74
2022/08/24 14:09:34;;;;;;;34.85;6.28;;;;;;;30.94;100.00;99563.44;5094268;28;20064;-74
2022/08/24 14:12:37;;;;;;;27.42;5.68;;;;;;;30.45;100.00;99560.53;5094219;28;20032;-75
2022/08/24 14:17:50;;;;;;;36.50;6.28;;;;;;;30.78;100.00;99553.91;5094635;28;20544;-74
2022/08/24 14:19:23;;;;;;;25.77;5.82;;;;;;;31.04;100.00;99553.47;5054615;28;20040;-70
2022/08/24 14:21:55;;;;;;;23.30;5.75;;;;;;;30.66;100.00;99563.25;5089972;28;20116;-77
2022/08/24 14:24:36;;;;;;;33.72;7.00;;;;;;;30.41;100.00;99569.75;5080743;28;20028;-78
2022/08/24 14:27:38;;;;;;;27.05;6.18;;;;;;;30.63;100.00;99570.69;5095214;28;20432;-79
2022/08/24 14:30:16;;;;;;;28.83;6.10;;;;;;;30.52;100.00;99581.63;5093298;28;20032;-75
2022/08/24 14:32:45;;;;;;;19.65;5.47;;;;;;;30.87;100.00;99564.34;5093426;28;20106;-77
2022/08/24 14:35:29;;;;;;;22.42;5.40;;;;;;;31.03;100.00;99567.59;5076625;28;20029;-77
2022/08/24 14:38:01;;;;;;;27.35;5.50;;;;;;;31.70;100.00;99568.16;5074829;28;20025;-80
2022/08/24 14:40:51;;;;;;;19.15;5.38;;;;;;;30.86;100.00;99565.38;5074443;28;20055;-80
2022/08/24 14:43:23;;;;;;;22.73;5.97;;;;;;;30.79;100.00;99571.31;5074381;28;20032;-75
2022/08/24 14:45:51;;;;;;;24.15;6.40;;;;;;;31.03;100.00;99564.97;5074393;28;20123;-77
2022/08/24 14:48:38;;;;;;;31.02;5.85;;;;;;;31.03;100.00;99564.16;5073694;28;20028;-78
2022/08/24 14:51:37;;;;;;;31.05;6.72;;;;;;;30.34;100.00;99523.41;5074151;28;20035;-81
2022/08/24 14:54:24;;;;;;;23.38;5.20;;;;;;;30.62;100.00;99548.84;5082169;28;20107;-78
2022/08/24 14:57:14;;;;;;;29.35;5.88;;;;;;;30.64;100.00;99552.09;5092696;28;20119;-80
2022/08/24 14:59:52;;;;;;;23.58;6.18;;;;;;;29.88;100.00;99470.25;5092750;28;20063;-80
2022/08/24 15:03:05;;;;;;;22.17;5.85;;;;;;;30.79;100.00;99545.06;5092784;28;20060;-78
2022/08/24 15:05:31;;;;;;;26.20;6.13;;;;;;;30.31;100.00;99556.09;5093825;28;20057;-79
2022/08/24 15:08:10;;;;;;;26.38;5.57;;;;;;;30.77;100.00;99533.91;5093552;28;20032;-76
2022/08/24 15:10:57;;;;;;;23.73;5.82;;;;;;;30.98;100.00;99548.16;5094126;28;20085;-78
2022/08/24 15:13:34;;;;;;;27.17;6.03;;;;;;;30.97;100.00;99536.81;5094158;28;20118;-80
2022/08/24 15:16:06;;;;;;;24.45;5.75;;;;;;;30.75;100.00;99535.91;5093671;28;20110;-83
2022/08/24 15:18:37;;;;;;;22.35;5.35;;;;;;;30.31;100.00;99534.25;5078788;28;20040;-79
2022/08/24 15:21:25;;;;;;;28.52;5.78;;;;;;;30.37;100.00;99537.00;5089289;28;20060;-77
2022/08/24 15:23:59;;;;;;;27.67;5.95;;;;;;;30.43;100.00;99536.28;5093241;28;20028;-76
2022/08/24 15:27:01;;;;;;;27.70;5.90;;;;;;;30.56;100.00;99538.28;5091374;28;20032;-78
2022/08/24 15:29:30;;;;;;;26.17;5.68;;;;;;;30.27;100.00;99511.97;5089350;28;20024;-81
2022/08/24 15:31:58;;;;;;;24.73;6.22;;;;;;;30.63;100.00;99476.16;5083162;28;20038;-80
2022/08/24 15:34:35;;;;;;;24.38;5.63;;;;;;;30.70;100.00;99554.00;5093318;28;20056;-79
2022/08/24 15:37:01;;;;;;;25.50;5.65;;;;;;;29.98;100.00;99544.25;5100346;27;20039;-75
2022/08/24 15:39:28;;;;;;;32.00;6.57;;;;;;;30.43;100.00;99559.91;5092884;28;20085;-77
2022/08/24 15:41:54;;;;;;;23.48;5.80;;;;;;;30.25;100.00;99558.59;5092882;28;20040;-76
2022/08/24 15:44:27;;;;;;;19.80;5.68;;;;;;;30.45;100.00;99568.41;5091950;28;20021;-78
2022/08/24 15:46:54;;;;;;;18.10;5.82;;;;;;;30.19;100.00;99575.84;5091766;28;20031;-77
2022/08/24 15:49:43;;;;;;;19.10;5.88;;;;;;;30.08;100.00;99571.03;5092831;28;20032;-79
2022/08/24 15:52:43;;;;;;;21.50;5.78;;;;;;;29.74;100.00;99537.38;5093244;28;20040;-78
2022/08/24 15:55:30;;;;;;;18.77;5.80;;;;;;;29.86;100.00;99582.34;5082995;28;20038;-76
2022/08/24 15:57:57;;;;;;;23.10;5.93;;;;;;;29.62;100.00;99579.88;5073933;28;20032;-77
2022/08/24 16:03:27;;;;;;;20.83;5.85;;;;;;;29.10;100.00;99546.41;5084879;28;20068;-76
2022/08/24 16:05:55;;;;;;;23.13;5.85;;;;;;;29.24;100.00;99578.94;5079324;28;20410;-75
2022/08/24 16:08:22;;;;;;;25.00;6.10;;;;;;;28.90;100.00;99542.56;5077393;28;20061;-73
2022/08/24 16:11:18;;;;;;;23.65;6.25;;;;;;;28.96;100.00;99552.38;5104346;28;20101;-79
2022/08/24 16:13:43;;;;;;;22.77;5.32;;;;;;;28.82;100.00;99545.22;5092638;28;20056;-82
2022/08/24 16:16:29;;;;;;;20.20;5.78;;;;;;;28.94;100.00;99550.94;5093166;28;20032;-76
2022/08/24 16:18:59;;;;;;;26.33;6.13;;;;;;;29.29;100.00;99597.59;5092621;28;20032;-73
2022/08/24 16:21:50;;;;;;;20.92;5.68;;;;;;;28.91;100.00;99583.50;5093389;28;20498;-77
2022/08/24 16:24:18;;;;;;;28.10;6.22;;;;;;;29.01;100.00;99601.63;5092885;28;20132;-78
2022/08/24 16:26:46;;;;;;;21.77;6.03;;;;;;;29.34;100.00;99597.06;5092426;28;20035;-74
2022/08/24 16:29:37;;;;;;;23.30;6.15;;;;;;;29.02;100.00;99598.84;5088853;28;20032;-75
2022/08/24 16:32:14;;;;;;;23.77;5.57;;;;;;;29.14;100.00;99595.88;5092367;28;20107;-75
2022/08/24 16:34:41;;;;;;;28.05;6.32;;;;;;;28.65;100.00;99577.69;5091696;28;20103;-73
2022/08/24 16:37:07;;;;;;;19.30;5.72;;;;;;;28.99;100.00;99612.28;5091573;28;20035;-73
2022/08/24 16:39:33;;;;;;;22.45;5.68;;;;;;;28.91;100.00;99607.06;5092163;28;20024;-74
2022/08/24 16:42:05;;;;;;;22.27;5.75;;;;;;;28.71;100.00;99574.41;5091999;28;20472;-73
2022/08/24 16:44:35;;;;;;;20.95;6.30;;;;;;;28.66;100.00;99568.84;5092048;28;20505;-75
2022/08/24 16:47:02;;;;;;;18.53;5.80;;;;;;;28.66;100.00;99573.28;5092537;28;20039;-73